Real Data Tables
Date Time DC Voltage DC Current AC Voltage AC Current Frequency Power Genarated
2019-02-16 09:46:34 261 V 8.80AMP 261V 8.40 AMP 50Hz 2296.8 W
2019-02-16 09:37:48 265 V 8.00AMP 258V 7.80 AMP 50Hz 2120 W
2019-02-16 09:29:02 268 V 7.80AMP 258V 7.70 AMP 50Hz 2090.4 W
2019-02-16 09:20:17 260 V 7.00AMP 261V 6.60 AMP 50Hz 1820 W
2019-02-16 09:11:31 267 V 6.60AMP 260V 6.40 AMP 50Hz 1762.2 W
2019-02-16 09:02:45 270 V 6.10AMP 250V 6.30 AMP 50Hz 1647 W
2019-02-16 08:54:00 271 V 5.70AMP 247V 5.90 AMP 50Hz 1544.7 W
2019-02-16 08:45:14 265 V 5.20AMP 249V 5.30 AMP 50Hz 1378 W
2019-02-16 08:36:28 271 V 4.60AMP 252V 4.70 AMP 50Hz 1246.6 W
2019-02-16 08:27:43 276 V 4.10AMP 251V 4.30 AMP 50Hz 1131.6 W
2019-02-16 08:18:57 284 V 3.60AMP 252V 3.90 AMP 50Hz 1022.4 W
2019-02-16 08:10:12 273 V 3.10AMP 252V 3.20 AMP 50Hz 846.3 W
2019-02-16 08:01:26 274 V 2.50AMP 251V 2.60 AMP 50Hz 685 W
2019-02-16 07:52:41 275 V 2.00AMP 252V 2.10 AMP 50Hz 550 W
2019-02-16 07:43:55 273 V 1.50AMP 246V 1.60 AMP 50Hz 409.5 W
2019-02-16 07:35:10 272 V 1.10AMP 248V 1.10 AMP 50Hz 299.2 W
2019-02-16 07:26:24 241 V 0.80AMP 242V 0.80 AMP 50Hz 192.8 W
2019-02-16 07:17:38 272 V 1.10AMP 243V 1.20 AMP 50Hz 299.2 W
2019-02-16 07:08:53 261 V 0.70AMP 244V 0.70 AMP 50Hz 182.7 W
2019-02-16 07:00:07 127 V 0.20AMP 251V 0.10 AMP 50Hz 25.4 W
2019-02-16 06:51:21 124 V 0.00AMP 246V 0.50 AMP 50Hz 0 W
2019-02-16 06:42:36 175 V 0.00AMP 249V 0.50 AMP 50Hz 0 W
2019-02-16 06:33:50 256 V 0.00AMP 250V 0.50 AMP 50Hz 0 W
2019-02-16 06:25:04 162 V 0.00AMP 248V 0.50 AMP 50Hz 0 W
2019-02-16 06:16:19 70 V 0.00AMP 253V 0.50 AMP 50Hz 0 W
2019-02-16 06:07:33 273 V 0.00AMP 253V 0.00 AMP 50Hz 0 W
2019-02-16 05:58:47 179 V 0.00AMP 250V 0.00 AMP 50Hz 0 W